Time;durP1;ratioP1;P1;durP2;ratioP2;P2;SDS_P1;SDS_P2;PMS_P1;PMS_P2;Temp;Humidity;BMP_temperature;BMP_pressure;BME280_temperature;BME280_humidity;BME280_pressure;Samples;Min_cycle;Max_cycle;Signal;HPM_P1;HPM_P2
2023/03/13 00:01:13;;;;;;;36.38;24.40;;;4.80;70.70;;;;;;5035701;28;20028;-67
2023/03/13 00:03:39;;;;;;;38.15;25.80;;;4.80;70.00;;;;;;5036261;28;20108;-69
2023/03/13 00:06:05;;;;;;;41.03;26.67;;;5.00;69.90;;;;;;5036082;28;20112;-63
2023/03/13 00:08:30;;;;;;;34.15;23.38;;;5.00;70.00;;;;;;5036032;28;20068;-64
2023/03/13 00:10:56;;;;;;;32.67;22.23;;;4.90;70.50;;;;;;5035991;28;20492;-68
2023/03/13 00:13:22;;;;;;;35.53;24.60;;;4.90;71.20;;;;;;5035815;28;20030;-70
2023/03/13 00:15:47;;;;;;;28.65;20.00;;;4.90;70.50;;;;;;5035649;28;20430;-72
2023/03/13 00:18:13;;;;;;;26.02;17.58;;;4.90;71.30;;;;;;5035685;28;20022;-63
2023/03/13 00:20:39;;;;;;;24.50;17.10;;;4.80;71.40;;;;;;5035651;28;20475;-67
2023/03/13 00:23:05;;;;;;;25.25;16.80;;;4.80;71.60;;;;;;5035907;28;20029;-69
2023/03/13 00:25:30;;;;;;;23.30;16.20;;;4.80;71.60;;;;;;5035664;28;20471;-69
2023/03/13 00:27:56;;;;;;;27.63;17.10;;;4.90;71.40;;;;;;5035530;28;20025;-66
2023/03/13 00:30:22;;;;;;;22.63;16.30;;;4.90;70.80;;;;;;5035011;28;20052;-62
2023/03/13 00:32:47;;;;;;;25.70;17.20;;;5.00;70.90;;;;;;5035257;28;20025;-64
2023/03/13 00:35:14;;;;;;;44.17;27.40;;;4.90;70.70;;;;;;5035149;28;20095;-64
2023/03/13 00:37:40;;;;;;;37.20;24.60;;;4.70;72.50;;;;;;5035602;28;20074;-60
2023/03/13 00:40:07;;;;;;;28.00;19.70;;;4.50;73.60;;;;;;5035235;28;20022;-68
2023/03/13 00:42:33;;;;;;;28.27;18.98;;;4.50;74.30;;;;;;5035362;28;20057;-64
2023/03/13 00:44:59;;;;;;;25.13;17.50;;;4.60;73.30;;;;;;5035091;28;20026;-65
2023/03/13 00:47:25;;;;;;;23.77;16.90;;;4.60;73.50;;;;;;5035025;28;20360;-62
2023/03/13 00:49:51;;;;;;;21.38;15.40;;;4.70;72.40;;;;;;5035457;28;20029;-65
2023/03/13 00:52:17;;;;;;;23.27;15.70;;;4.70;72.00;;;;;;5035145;28;20025;-68
2023/03/13 00:54:43;;;;;;;23.45;16.45;;;4.80;71.80;;;;;;5035351;28;20029;-65
2023/03/13 00:57:09;;;;;;;21.02;15.10;;;4.80;71.90;;;;;;5035267;28;20033;-63
2023/03/13 00:59:34;;;;;;;28.17;18.70;;;4.80;72.60;;;;;;5034706;28;20025;-65
2023/03/13 01:02:00;;;;;;;28.63;19.25;;;4.80;72.70;;;;;;5034858;28;20021;-65
2023/03/13 01:04:26;;;;;;;28.52;19.05;;;4.60;73.30;;;;;;5035064;28;20025;-70
2023/03/13 01:06:52;;;;;;;22.77;14.77;;;4.30;74.30;;;;;;5034817;28;20021;-61
2023/03/13 01:09:18;;;;;;;20.73;14.32;;;4.30;75.60;;;;;;5034834;28;20113;-66
2023/03/13 01:11:45;;;;;;;41.42;27.52;;;4.40;75.60;;;;;;5034613;28;20025;-62
2023/03/13 01:14:16;;;;;;;42.75;26.33;;;4.40;74.70;;;;;;5034535;28;20021;-63
2023/03/13 01:16:42;;;;;;;37.83;23.95;;;4.30;75.20;;;;;;5034725;28;20540;-62
2023/03/13 01:19:11;;;;;;;30.20;20.23;;;4.30;75.00;;;;;;5034492;28;20104;-61
2023/03/13 01:21:36;;;;;;;28.65;20.08;;;4.40;75.90;;;;;;5034554;28;20029;-62
2023/03/13 01:24:03;;;;;;;29.25;19.33;;;4.40;75.10;;;;;;5034546;28;20129;-69
2023/03/13 01:26:28;;;;;;;30.02;19.25;;;4.40;74.60;;;;;;5034313;28;20029;-61
2023/03/13 01:28:54;;;;;;;40.83;26.40;;;4.40;74.60;;;;;;5034372;28;20097;-58
2023/03/13 01:31:26;;;;;;;27.20;19.45;;;4.50;73.90;;;;;;5034486;28;20464;-64
2023/03/13 01:33:57;;;;;;;27.83;19.75;;;4.40;75.40;;;;;;5034189;28;20029;-64
2023/03/13 01:36:24;;;;;;;26.10;17.98;;;4.40;74.30;;;;;;5033963;28;20077;-62
2023/03/13 01:38:52;;;;;;;28.63;20.45;;;4.40;74.70;;;;;;5034301;28;20472;-60
2023/03/13 01:41:19;;;;;;;28.42;19.33;;;4.40;74.20;;;;;;5033675;28;20379;-59
2023/03/13 01:43:46;;;;;;;24.77;17.08;;;4.40;74.60;;;;;;5032702;28;20382;-63
2023/03/13 01:46:17;;;;;;;20.13;15.50;;;4.40;74.80;;;;;;5034102;28;20439;-63
2023/03/13 01:48:59;;;;;;;27.40;19.98;;;4.30;74.90;;;;;;5034213;28;20028;-67
2023/03/13 01:51:39;;;;;;;29.15;19.80;;;4.30;74.80;;;;;;5033942;28;20022;-68
2023/03/13 01:54:14;;;;;;;31.42;20.90;;;4.10;75.70;;;;;;5034212;28;20025;-59
2023/03/13 01:57:03;;;;;;;25.95;17.40;;;3.90;77.00;;;;;;5033767;28;20029;-67
2023/03/13 01:59:46;;;;;;;21.77;15.15;;;3.80;77.90;;;;;;5033991;28;20534;-64
2023/03/13 02:02:13;;;;;;;22.63;15.35;;;3.80;78.50;;;;;;5033780;28;20017;-66
2023/03/13 02:04:45;;;;;;;20.13;13.93;;;3.90;78.30;;;;;;5033874;28;20071;-66
2023/03/13 02:07:18;;;;;;;20.35;14.60;;;4.00;77.90;;;;;;5033947;28;20052;-65
2023/03/13 02:09:50;;;;;;;22.88;16.05;;;4.10;77.40;;;;;;5033592;28;20029;-65
2023/03/13 02:12:25;;;;;;;18.75;12.18;;;4.10;77.40;;;;;;5033888;28;20092;-62
2023/03/13 02:14:52;;;;;;;18.52;12.68;;;4.00;77.90;;;;;;5033528;28;20053;-66
2023/03/13 02:17:19;;;;;;;25.30;16.58;;;4.10;77.90;;;;;;5033517;28;20538;-65
2023/03/13 02:19:47;;;;;;;16.30;12.25;;;4.10;78.80;;;;;;5033776;28;20091;-63
2023/03/13 02:22:21;;;;;;;16.20;12.00;;;4.00;80.30;;;;;;5033467;28;20077;-60
2023/03/13 02:24:59;;;;;;;15.02;10.38;;;3.90;81.10;;;;;;5033801;28;20028;-65
2023/03/13 02:27:24;;;;;;;20.13;13.88;;;4.00;80.40;;;;;;5033376;28;20360;-63
2023/03/13 02:29:51;;;;;;;17.45;12.30;;;4.00;78.60;;;;;;5033730;28;20028;-61
2023/03/13 02:32:18;;;;;;;21.77;14.52;;;4.00;77.90;;;;;;5033403;28;20018;-63
2023/03/13 02:34:46;;;;;;;16.67;13.00;;;4.00;78.50;;;;;;5033026;28;20045;-67
2023/03/13 02:37:13;;;;;;;18.80;13.88;;;3.80;78.80;;;;;;5033376;28;20057;-60
2023/03/13 02:39:44;;;;;;;20.20;14.00;;;3.80;78.50;;;;;;5033401;28;20486;-61
2023/03/13 02:42:12;;;;;;;19.95;13.55;;;3.80;78.30;;;;;;5033151;28;20468;-61
2023/03/13 02:44:41;;;;;;;15.85;11.70;;;3.80;79.30;;;;;;5033495;28;20030;-65
2023/03/13 02:47:10;;;;;;;17.02;12.63;;;3.80;78.90;;;;;;5033155;28;20033;-62
2023/03/13 02:49:36;;;;;;;15.30;9.75;;;3.80;78.20;;;;;;5033394;28;20025;-58
2023/03/13 02:52:13;;;;;;;15.23;10.75;;;3.70;78.60;;;;;;5035019;28;20033;-66
2023/03/13 02:54:40;;;;;;;12.20;8.80;;;3.80;78.20;;;;;;5037101;28;20025;-62
2023/03/13 02:57:05;;;;;;;12.50;8.93;;;3.80;79.20;;;;;;5037156;28;20437;-66
2023/03/13 02:59:32;;;;;;;10.60;7.80;;;3.80;78.40;;;;;;5037506;28;20025;-62
2023/03/13 03:01:58;;;;;;;12.07;8.48;;;3.80;78.10;;;;;;5037531;28;20026;-66
2023/03/13 03:04:25;;;;;;;8.38;6.55;;;3.90;77.90;;;;;;5037251;28;20018;-67
2023/03/13 03:06:51;;;;;;;10.27;7.57;;;3.90;78.00;;;;;;5037038;28;20100;-64
2023/03/13 03:09:18;;;;;;;9.73;7.15;;;3.90;78.80;;;;;;5036799;28;20104;-65
2023/03/13 03:11:44;;;;;;;15.02;9.80;;;3.90;78.50;;;;;;5036845;28;20022;-67
2023/03/13 03:14:11;;;;;;;12.63;8.70;;;3.90;78.10;;;;;;5037211;28;20036;-63
2023/03/13 03:16:37;;;;;;;11.70;7.72;;;3.80;78.00;;;;;;5037169;28;20383;-70
2023/03/13 03:19:03;;;;;;;11.18;7.97;;;3.70;78.60;;;;;;5037035;28;20108;-70
2023/03/13 03:21:29;;;;;;;12.25;7.25;;;3.80;78.70;;;;;;5036843;28;20029;-63
2023/03/13 03:23:55;;;;;;;8.77;6.88;;;3.80;78.80;;;;;;5036534;28;20356;-59
2023/03/13 03:26:20;;;;;;;13.15;9.50;;;3.80;78.60;;;;;;5036590;28;20037;-69
2023/03/13 03:28:46;;;;;;;10.85;8.05;;;3.80;78.50;;;;;;5036977;28;20467;-64
2023/03/13 03:31:14;;;;;;;11.98;8.10;;;3.60;80.10;;;;;;5036604;28;20456;-65
2023/03/13 03:33:40;;;;;;;10.15;7.45;;;3.60;80.50;;;;;;5036545;28;20013;-63
2023/03/13 03:36:15;;;;;;;9.80;7.40;;;3.60;80.10;;;;;;5036301;28;20053;-64
2023/03/13 03:38:42;;;;;;;8.93;5.82;;;3.60;79.60;;;;;;5036335;28;20384;-72
2023/03/13 03:41:09;;;;;;;9.45;6.60;;;3.60;79.10;;;;;;5036430;28;20379;-62
2023/03/13 03:43:35;;;;;;;8.30;5.75;;;3.70;79.20;;;;;;5036484;28;20104;-62
2023/03/13 03:46:02;;;;;;;15.38;10.73;;;3.70;79.10;;;;;;5036483;28;20108;-64
2023/03/13 03:48:28;;;;;;;11.68;8.15;;;3.70;78.80;;;;;;5036510;28;20017;-65
2023/03/13 03:50:53;;;;;;;11.05;7.45;;;3.70;79.10;;;;;;5036331;28;20479;-63
2023/03/13 03:53:19;;;;;;;9.20;8.07;;;3.70;79.80;;;;;;5036295;28;20088;-60
2023/03/13 03:55:45;;;;;;;10.90;8.15;;;3.70;79.20;;;;;;5036394;28;20104;-66
2023/03/13 03:58:11;;;;;;;12.60;8.80;;;3.70;78.90;;;;;;5036181;28;20101;-64
2023/03/13 04:00:37;;;;;;;16.42;12.23;;;3.60;79.40;;;;;;5036224;28;20022;-67
2023/03/13 04:03:03;;;;;;;12.13;9.60;;;3.50;79.20;;;;;;5035526;28;20033;-63
2023/03/13 04:05:28;;;;;;;14.77;9.88;;;3.40;79.70;;;;;;5035726;28;20064;-62
2023/03/13 04:07:54;;;;;;;14.60;9.85;;;3.40;79.90;;;;;;5036022;28;20032;-66
2023/03/13 04:10:20;;;;;;;13.77;8.90;;;3.30;80.00;;;;;;5036127;28;20120;-65
2023/03/13 04:12:47;;;;;;;14.07;10.20;;;3.30;80.30;;;;;;5036031;28;20021;-64
2023/03/13 04:15:12;;;;;;;12.48;8.68;;;3.40;80.00;;;;;;5035897;28;20060;-70
2023/03/13 04:17:38;;;;;;;11.38;8.15;;;3.40;79.60;;;;;;5035728;28;20428;-62
2023/03/13 04:20:05;;;;;;;10.43;6.70;;;3.30;79.90;;;;;;5035565;28;20028;-63
2023/03/13 04:22:31;;;;;;;8.05;6.30;;;3.30;80.90;;;;;;5035802;28;20021;-64
2023/03/13 04:24:57;;;;;;;9.35;6.85;;;3.30;80.60;;;;;;5035585;28;20440;-67
2023/03/13 04:27:22;;;;;;;9.65;6.45;;;3.40;79.90;;;;;;5035520;28;20510;-70
2023/03/13 04:29:48;;;;;;;7.10;5.70;;;3.40;80.10;;;;;;5035692;28;20029;-61
2023/03/13 04:32:13;;;;;;;9.80;6.68;;;3.50;80.00;;;;;;5035584;28;20384;-66
2023/03/13 04:34:39;;;;;;;10.23;7.00;;;3.40;79.20;;;;;;5035208;28;20072;-68
2023/03/13 04:37:05;;;;;;;9.10;6.95;;;3.40;78.80;;;;;;5035126;28;20032;-69
2023/03/13 04:39:30;;;;;;;7.93;6.18;;;3.30;79.30;;;;;;5035685;28;20147;-68
2023/03/13 04:41:56;;;;;;;7.32;6.35;;;3.30;79.70;;;;;;5035326;28;20022;-68
2023/03/13 04:44:22;;;;;;;6.78;5.38;;;3.40;79.30;;;;;;5035217;28;20034;-62
2023/03/13 04:46:48;;;;;;;6.07;5.10;;;3.50;79.30;;;;;;5035549;28;20494;-62
2023/03/13 04:49:14;;;;;;;6.63;5.15;;;3.50;79.10;;;;;;5035194;28;20025;-63
2023/03/13 04:51:41;;;;;;;6.85;5.28;;;3.50;78.80;;;;;;5035165;28;20353;-63
2023/03/13 04:54:07;;;;;;;6.93;5.65;;;3.50;79.40;;;;;;5035201;28;20032;-60
2023/03/13 04:56:33;;;;;;;8.13;6.55;;;3.50;79.60;;;;;;5035016;28;20033;-64
2023/03/13 04:58:59;;;;;;;8.25;6.10;;;3.50;80.30;;;;;;5034914;28;20083;-64
2023/03/13 05:01:24;;;;;;;8.95;5.85;;;3.50;80.20;;;;;;5035227;28;20021;-62
2023/03/13 05:03:50;;;;;;;9.73;7.13;;;3.50;79.90;;;;;;5035047;28;20025;-61
2023/03/13 05:06:16;;;;;;;9.50;7.50;;;3.50;79.90;;;;;;5034619;28;20104;-60
2023/03/13 05:08:42;;;;;;;14.10;9.15;;;3.50;79.70;;;;;;5034772;28;20429;-69
2023/03/13 05:11:08;;;;;;;12.45;9.50;;;3.50;80.60;;;;;;5034851;28;20025;-68
2023/03/13 05:13:34;;;;;;;14.77;10.13;;;3.50;81.10;;;;;;5034961;28;20087;-68
2023/03/13 05:16:00;;;;;;;16.33;11.02;;;3.50;81.20;;;;;;5033530;28;20025;-63
2023/03/13 05:18:26;;;;;;;14.68;10.02;;;3.50;81.00;;;;;;5034722;28;20024;-64
2023/03/13 05:20:51;;;;;;;18.33;12.85;;;3.60;81.30;;;;;;5034288;28;20021;-63
2023/03/13 05:23:17;;;;;;;20.88;13.90;;;3.60;81.30;;;;;;5034502;28;20101;-64
2023/03/13 05:25:43;;;;;;;24.83;17.17;;;3.60;81.30;;;;;;5034408;28;20383;-63
2023/03/13 05:28:08;;;;;;;27.73;17.92;;;3.60;81.40;;;;;;5034383;28;20018;-66
2023/03/13 05:30:34;;;;;;;29.40;19.65;;;3.70;81.60;;;;;;5034316;28;20498;-61
2023/03/13 05:33:00;;;;;;;39.05;24.58;;;3.70;81.40;;;;;;5034652;28;20553;-67
2023/03/13 05:35:25;;;;;;;25.98;18.80;;;3.70;81.80;;;;;;5033756;28;20045;-61
2023/03/13 05:37:51;;;;;;;26.80;18.05;;;3.60;82.50;;;;;;5034328;28;20018;-63
2023/03/13 05:40:17;;;;;;;26.27;17.98;;;3.70;83.30;;;;;;5034124;28;20387;-65
2023/03/13 05:42:44;;;;;;;55.20;35.13;;;3.70;81.10;;;;;;5034186;28;20033;-65
2023/03/13 05:45:11;;;;;;;39.30;28.25;;;3.70;81.40;;;;;;5034055;28;20028;-62
2023/03/13 05:47:37;;;;;;;47.90;32.72;;;3.60;81.40;;;;;;5034032;28;20072;-59
2023/03/13 05:50:04;;;;;;;38.70;26.52;;;3.50;82.20;;;;;;5033954;28;20033;-66
2023/03/13 05:52:30;;;;;;;34.03;24.95;;;3.50;83.50;;;;;;5033767;28;20022;-66
2023/03/13 05:54:56;;;;;;;32.35;22.70;;;3.50;83.60;;;;;;5033589;28;20025;-62
2023/03/13 05:57:22;;;;;;;32.58;23.05;;;3.60;83.10;;;;;;5033592;28;20021;-65
2023/03/13 05:59:47;;;;;;;30.73;22.08;;;3.70;82.70;;;;;;5033919;28;20029;-63
2023/03/13 06:02:14;;;;;;;30.17;21.15;;;3.80;82.00;;;;;;5051438;28;20024;-67
2023/03/13 06:04:40;;;;;;;29.83;20.52;;;3.80;81.60;;;;;;5051992;28;20029;-59
2023/03/13 06:07:06;;;;;;;27.88;19.60;;;3.90;81.60;;;;;;5053472;28;20505;-63
2023/03/13 06:09:31;;;;;;;52.08;36.25;;;3.90;81.10;;;;;;5053315;28;20032;-66
2023/03/13 06:11:57;;;;;;;44.78;31.02;;;4.00;80.80;;;;;;5053821;28;20021;-65
2023/03/13 06:14:23;;;;;;;40.70;28.40;;;4.00;80.60;;;;;;5053428;28;20024;-63
2023/03/13 06:16:49;;;;;;;42.35;29.42;;;4.10;80.60;;;;;;5053012;28;20053;-64
2023/03/13 06:19:14;;;;;;;38.55;28.33;;;4.10;79.90;;;;;;5052133;28;20094;-62
2023/03/13 06:21:41;;;;;;;39.05;29.08;;;4.20;78.90;;;;;;5053613;28;20021;-59
2023/03/13 06:24:07;;;;;;;44.05;30.35;;;4.30;78.80;;;;;;5053457;28;20383;-59
2023/03/13 06:26:32;;;;;;;47.58;33.92;;;4.40;78.70;;;;;;5052755;28;20048;-62
2023/03/13 06:28:58;;;;;;;124.75;84.32;;;4.50;78.50;;;;;;5053407;28;20021;-65
2023/03/13 06:31:24;;;;;;;103.93;75.50;;;4.40;80.10;;;;;;5053230;28;20100;-64
2023/03/13 06:33:55;;;;;;;94.40;66.20;;;4.20;81.60;;;;;;5053217;28;20029;-61
2023/03/13 06:36:22;;;;;;;93.55;63.50;;;4.70;83.00;;;;;;5052105;28;20041;-56
2023/03/13 06:38:49;;;;;;;96.85;62.10;;;7.20;75.80;;;;;;5051344;28;20041;-60
2023/03/13 06:41:16;;;;;;;71.20;48.50;;;9.10;68.30;;;;;;5051005;28;20040;-67
2023/03/13 06:43:42;;;;;;;64.40;45.33;;;10.70;62.40;;;;;;5050513;28;20467;-64
2023/03/13 06:46:19;;;;;;;58.80;42.10;;;12.30;57.40;;;;;;5051481;28;20036;-61
2023/03/13 06:48:45;;;;;;;62.38;44.53;;;14.00;52.40;;;;;;5052134;28;20119;-64
2023/03/13 06:51:12;;;;;;;64.13;44.47;;;14.70;48.70;;;;;;5050796;28;20022;-61
2023/03/13 06:53:38;;;;;;;70.30;45.35;;;15.10;47.30;;;;;;5052652;28;20045;-65
2023/03/13 06:56:04;;;;;;;56.00;40.97;;;15.80;45.90;;;;;;5051599;28;20060;-58
2023/03/13 06:58:30;;;;;;;62.58;43.08;;;16.70;44.20;;;;;;5052063;28;20029;-62
2023/03/13 07:00:56;;;;;;;56.17;40.30;;;17.70;42.70;;;;;;5050103;28;20029;-62
2023/03/13 07:03:22;;;;;;;43.90;34.53;;;18.80;40.90;;;;;;5052075;28;20459;-61
2023/03/13 07:05:57;;;;;;;34.78;29.08;;;19.60;40.40;;;;;;5052545;28;20025;-58
2023/03/13 07:08:26;;;;;;;30.35;26.17;;;20.80;39.20;;;;;;5052630;28;20391;-62
2023/03/13 07:10:53;;;;;;;33.35;26.15;;;21.80;36.60;;;;;;5046934;28;20029;-61
2023/03/13 07:13:20;;;;;;;26.25;22.25;;;22.40;34.10;;;;;;5051033;28;20029;-66
2023/03/13 07:15:47;;;;;;;23.20;20.73;;;22.50;35.40;;;;;;5051163;28;20021;-58
2023/03/13 07:18:13;;;;;;;31.45;25.00;;;23.30;34.30;;;;;;5049936;28;20036;-61
2023/03/13 07:20:39;;;;;;;22.77;20.38;;;23.60;32.70;;;;;;5049396;28;20451;-64
2023/03/13 07:23:05;;;;;;;22.92;20.42;;;24.00;32.90;;;;;;5050449;28;20379;-62
2023/03/13 07:25:30;;;;;;;22.38;19.83;;;24.20;32.80;;;;;;5047771;28;20479;-64
2023/03/13 07:27:56;;;;;;;20.13;18.02;;;23.20;32.10;;;;;;5039197;28;20030;-70
2023/03/13 07:30:22;;;;;;;21.60;19.20;;;22.00;33.00;;;;;;5051186;28;20025;-62
2023/03/13 07:32:48;;;;;;;22.63;20.23;;;21.30;33.00;;;;;;5040286;28;20065;-71
2023/03/13 07:35:14;;;;;;;21.95;19.65;;;20.50;34.30;;;;;;5041876;28;20411;-69
2023/03/13 07:37:39;;;;;;;33.35;28.25;;;20.20;35.20;;;;;;5050531;28;20106;-65
2023/03/13 07:40:08;;;;;;;34.55;29.80;;;20.20;34.50;;;;;;5055421;28;20025;-66
2023/03/13 07:46:01;;;;;;;35.67;31.38;;;21.30;34.60;;;;;;5055277;28;20132;-67
2023/03/13 07:48:35;;;;;;;33.67;30.15;;;22.00;34.00;;;;;;5054950;28;20389;-67
2023/03/13 07:51:01;;;;;;;30.83;26.83;;;23.10;32.80;;;;;;5054352;28;20025;-67
2023/03/13 07:53:28;;;;;;;26.67;23.98;;;23.80;32.30;;;;;;5054917;28;20471;-63
2023/03/13 07:55:58;;;;;;;24.58;22.08;;;24.70;31.50;;;;;;5051931;28;20186;-71
2023/03/13 07:58:26;;;;;;;23.60;21.08;;;25.80;30.00;;;;;;5033817;28;20035;-67
2023/03/13 08:00:52;;;;;;;21.58;19.27;;;26.40;29.70;;;;;;5032196;28;20045;-65
2023/03/13 08:03:19;;;;;;;20.17;18.08;;;27.10;29.60;;;;;;5037285;28;20032;-67
2023/03/13 08:05:44;;;;;;;19.05;16.77;;;27.50;28.50;;;;;;5044754;28;20060;-67
2023/03/13 08:08:10;;;;;;;18.83;16.85;;;27.60;28.30;;;;;;5034806;28;20045;-67
2023/03/13 08:10:39;;;;;;;16.67;15.02;;;26.30;28.40;;;;;;5051573;28;20040;-69
2023/03/13 08:13:04;;;;;;;15.40;13.90;;;25.90;27.80;;;;;;5044802;28;20017;-71
2023/03/13 08:15:33;;;;;;;13.98;12.68;;;26.20;28.90;;;;;;5047425;28;20018;-64
2023/03/13 08:17:59;;;;;;;13.95;12.55;;;26.80;27.90;;;;;;5052700;28;20425;-67
2023/03/13 08:20:33;;;;;;;13.95;12.55;;;27.20;27.80;;;;;;5043396;28;20029;-74
2023/03/13 08:22:59;;;;;;;14.75;13.25;;;27.50;27.80;;;;;;5041210;28;20071;-71
2023/03/13 08:25:36;;;;;;;16.75;15.05;;;28.20;28.00;;;;;;5045029;28;20021;-68
2023/03/13 08:28:02;;;;;;;16.75;15.05;;;28.80;27.70;;;;;;5049119;28;20356;-66
2023/03/13 08:31:32;;;;;;;19.58;17.70;;;28.80;26.90;;;;;;5039421;28;20029;-67
2023/03/13 08:33:58;;;;;;;19.48;17.58;;;28.80;26.70;;;;;;5049567;28;20044;-64
2023/03/13 08:36:31;;;;;;;22.52;20.30;;;28.70;26.20;;;;;;5042615;28;20049;-71
2023/03/13 08:39:03;;;;;;;22.65;20.25;;;28.80;26.10;;;;;;5049455;28;20028;-65
2023/03/13 08:41:36;;;;;;;18.95;17.05;;;29.40;25.30;;;;;;5043036;28;20037;-64
2023/03/13 08:44:03;;;;;;;22.23;17.17;;;28.90;26.00;;;;;;5041169;28;20506;-65
2023/03/13 08:46:36;;;;;;;17.17;15.48;;;29.00;25.50;;;;;;5039276;28;20064;-67
2023/03/13 08:49:04;;;;;;;21.45;18.42;;;28.80;25.60;;;;;;5040873;28;20025;-67
2023/03/13 08:51:30;;;;;;;24.10;20.83;;;28.80;25.60;;;;;;5050037;28;20044;-64
2023/03/13 08:53:56;;;;;;;23.15;20.65;;;28.80;25.90;;;;;;5036310;28;20492;-64
2023/03/13 08:56:27;;;;;;;22.63;20.08;;;28.20;25.90;;;;;;5036618;28;20025;-67
2023/03/13 08:58:55;;;;;;;20.42;18.23;;;27.90;26.00;;;;;;5033377;28;20033;-63
2023/03/13 09:01:24;;;;;;;19.80;17.73;;;27.50;25.80;;;;;;5043002;28;20055;-63
2023/03/13 09:03:50;;;;;;;16.83;15.13;;;27.00;26.30;;;;;;5039236;28;20021;-66
2023/03/13 09:06:16;;;;;;;13.73;12.38;;;26.40;26.40;;;;;;5043968;28;20040;-74
2023/03/13 09:08:43;;;;;;;13.57;11.95;;;25.90;26.40;;;;;;5037815;28;20025;-69
2023/03/13 09:11:13;;;;;;;14.95;13.45;;;25.50;27.30;;;;;;5049192;28;20370;-62
2023/03/13 09:13:41;;;;;;;14.35;12.85;;;25.00;26.70;;;;;;5040164;28;20033;-65
2023/03/13 09:16:10;;;;;;;14.60;13.10;;;24.40;27.10;;;;;;5041721;28;20044;-68
2023/03/13 09:18:37;;;;;;;17.25;13.45;;;23.50;28.40;;;;;;5045955;28;20021;-66
2023/03/13 09:21:09;;;;;;;11.43;10.18;;;22.90;27.40;;;;;;5042943;28;20021;-65
2023/03/13 09:23:35;;;;;;;9.77;8.75;;;22.10;27.60;;;;;;5036143;28;20048;-66
2023/03/13 09:26:13;;;;;;;9.38;8.07;;;21.20;29.70;;;;;;5037929;28;20487;-70
2023/03/13 09:28:42;;;;;;;6.03;5.32;;;21.10;28.70;;;;;;5036806;28;20167;-72
2023/03/13 09:31:33;;;;;;;6.90;5.80;;;20.60;29.00;;;;;;5042957;28;20033;-67
2023/03/13 09:34:00;;;;;;;6.22;5.60;;;20.10;30.80;;;;;;5035660;28;20033;-65
2023/03/13 09:36:27;;;;;;;6.63;5.90;;;19.80;31.80;;;;;;5034842;28;20033;-61
2023/03/13 09:38:55;;;;;;;6.53;5.93;;;19.80;32.50;;;;;;5046152;28;20033;-65
2023/03/13 09:41:24;;;;;;;6.10;5.50;;;19.70;31.20;;;;;;5055102;28;20065;-65
2023/03/13 09:43:53;;;;;;;6.60;5.93;;;19.90;31.70;;;;;;5048741;28;20107;-65
2023/03/13 09:46:36;;;;;;;6.78;6.05;;;20.10;31.80;;;;;;5030008;28;20040;-60
2023/03/13 09:49:13;;;;;;;6.88;6.13;;;20.50;32.00;;;;;;5033053;28;20021;-65
2023/03/13 09:51:44;;;;;;;6.72;6.13;;;20.90;32.40;;;;;;5029682;28;20056;-68
2023/03/13 09:54:27;;;;;;;7.07;6.18;;;21.00;30.50;;;;;;5035017;28;20021;-66
2023/03/13 09:57:19;;;;;;;8.75;6.82;;;21.00;32.90;;;;;;5047233;28;20025;-70
2023/03/13 10:00:00;;;;;;;6.75;6.05;;;21.50;32.70;;;;;;5043023;28;20033;-65
2023/03/13 10:02:34;;;;;;;6.50;5.90;;;21.60;32.60;;;;;;5031445;28;20053;-67
2023/03/13 10:05:24;;;;;;;7.20;6.50;;;21.90;31.90;;;;;;5029825;28;20071;-66
2023/03/13 10:08:00;;;;;;;7.10;6.38;;;22.10;32.00;;;;;;5043278;28;20120;-68
2023/03/13 10:10:47;;;;;;;7.60;6.50;;;22.20;31.70;;;;;;5030262;28;20028;-62
2023/03/13 10:13:34;;;;;;;7.68;6.38;;;21.90;33.00;;;;;;5044668;28;20047;-70
2023/03/13 10:16:08;;;;;;;6.88;6.18;;;22.20;34.10;;;;;;5038995;28;20116;-66
2023/03/13 10:18:35;;;;;;;8.70;6.38;;;22.70;32.40;;;;;;5042252;28;20036;-65
2023/03/13 10:21:18;;;;;;;6.28;5.68;;;23.10;35.70;;;;;;5057112;28;20048;-71
2023/03/13 10:23:48;;;;;;;6.88;6.07;;;23.30;32.40;;;;;;5038724;28;20391;-70
2023/03/13 10:26:32;;;;;;;6.43;5.82;;;23.70;33.90;;;;;;5033353;28;20033;-64
2023/03/13 10:29:13;;;;;;;6.20;5.60;;;23.70;30.80;;;;;;5034028;28;20602;-67
2023/03/13 10:31:43;;;;;;;6.03;5.53;;;24.10;33.20;;;;;;5040538;28;20163;-62
2023/03/13 10:34:14;;;;;;;5.70;5.20;;;24.10;33.60;;;;;;5043654;28;20025;-72
2023/03/13 10:36:43;;;;;;;5.15;4.75;;;24.30;33.30;;;;;;5044554;28;20059;-68
2023/03/13 10:39:15;;;;;;;4.63;4.22;;;24.40;31.60;;;;;;5037682;28;20018;-68
2023/03/13 10:41:41;;;;;;;4.60;4.20;;;24.40;31.10;;;;;;5041247;28;20560;-68
2023/03/13 10:44:15;;;;;;;4.68;4.25;;;24.00;31.90;;;;;;5034090;28;20057;-66
2023/03/13 10:46:44;;;;;;;4.28;3.90;;;24.10;34.30;;;;;;5034518;28;20044;-66
2023/03/13 10:52:34;;;;;;;3.28;3.00;;;24.30;32.10;;;;;;5031281;28;20167;-64
2023/03/13 10:55:04;;;;;;;3.42;3.13;;;24.70;30.90;;;;;;5049902;28;20028;-69
2023/03/13 10:57:43;;;;;;;2.92;2.60;;;25.10;32.20;;;;;;5037400;28;20057;-72
2023/03/13 11:00:30;;;;;;;2.60;2.40;;;25.20;32.70;;;;;;5041440;28;20391;-65
2023/03/13 11:02:56;;;;;;;2.45;2.22;;;25.30;31.30;;;;;;5032431;28;20026;-68
2023/03/13 11:05:27;;;;;;;2.47;1.70;;;25.50;31.90;;;;;;5029783;28;20033;-66
2023/03/13 11:07:54;;;;;;;2.08;1.88;;;25.60;33.70;;;;;;5032039;28;20033;-67
2023/03/13 11:10:21;;;;;;;7.55;6.25;;;25.70;31.80;;;;;;5047983;28;20025;-64
2023/03/13 11:12:51;;;;;;;4.28;3.88;;;25.70;29.90;;;;;;5048615;28;20032;-67
2023/03/13 11:15:24;;;;;;;3.80;3.47;;;24.90;29.20;;;;;;5043189;28;20113;-64
2023/03/13 11:18:28;;;;;;;2.67;2.05;;;24.70;29.90;;;;;;5042529;28;20509;-66
2023/03/13 11:20:56;;;;;;;1.90;1.70;;;24.90;32.40;;;;;;5045033;28;20051;-62
2023/03/13 11:23:22;;;;;;;1.55;1.45;;;25.20;32.50;;;;;;5047539;28;20443;-66
2023/03/13 11:26:13;;;;;;;1.33;1.00;;;25.40;32.40;;;;;;5048775;28;20108;-74
2023/03/13 11:29:01;;;;;;;0.98;0.90;;;25.90;33.60;;;;;;5043331;28;20027;-66
2023/03/13 11:31:40;;;;;;;1.30;0.80;;;26.10;35.10;;;;;;5043394;28;20541;-71
2023/03/13 11:34:25;;;;;;;1.08;0.98;;;26.30;33.20;;;;;;5039336;28;20029;-67
2023/03/13 11:37:13;;;;;;;0.80;0.80;;;26.30;31.10;;;;;;5042896;28;20037;-65
2023/03/13 11:40:17;;;;;;;0.80;0.70;;;26.40;32.70;;;;;;5042569;28;20474;-70
2023/03/13 11:43:14;;;;;;;1.10;0.98;;;26.70;32.60;;;;;;5036792;28;20368;-64
2023/03/13 11:46:08;;;;;;;1.02;0.93;;;26.90;33.40;;;;;;5034965;28;20140;-69
2023/03/13 11:48:59;;;;;;;1.40;0.93;;;27.00;35.50;;;;;;5037900;28;20032;-60
2023/03/13 11:51:48;;;;;;;0.57;0.52;;;27.20;31.10;;;;;;5046374;28;20605;-68
2023/03/13 11:54:37;;;;;;;0.95;0.85;;;27.40;33.90;;;;;;5053466;28;20025;-65
2023/03/13 11:57:21;;;;;;;0.98;0.82;;;27.40;30.00;;;;;;5034685;28;20058;-67
2023/03/13 12:00:16;;;;;;;0.70;0.70;;;27.20;28.70;;;;;;5043027;28;20044;-65
2023/03/13 12:03:04;;;;;;;0.50;0.50;;;27.10;30.20;;;;;;5054279;28;20021;-68
2023/03/13 12:05:50;;;;;;;0.77;0.50;;;27.20;31.30;;;;;;5048450;28;20044;-68
2023/03/13 12:08:46;;;;;;;0.75;0.70;;;27.50;32.80;;;;;;5049275;28;20337;-72
2023/03/13 12:11:24;;;;;;;0.60;0.60;;;27.70;31.30;;;;;;5047914;28;20094;-63
2023/03/13 12:13:55;;;;;;;1.98;1.08;;;27.80;29.50;;;;;;5050429;28;20033;-64
2023/03/13 12:16:30;;;;;;;0.80;0.80;;;27.80;32.90;;;;;;5042179;28;20378;-73
2023/03/13 12:18:56;;;;;;;0.80;0.80;;;27.90;31.00;;;;;;5040113;28;20033;-67
2023/03/13 12:21:30;;;;;;;0.70;0.70;;;28.20;29.20;;;;;;5038365;28;20025;-68
2023/03/13 12:24:10;;;;;;;1.02;0.93;;;28.10;30.70;;;;;;5040636;28;20024;-68
2023/03/13 12:26:51;;;;;;;0.90;0.90;;;28.20;29.50;;;;;;5039725;28;20483;-64
2023/03/13 12:29:45;;;;;;;0.90;0.90;;;27.90;29.70;;;;;;5044279;28;20530;-64
2023/03/13 12:32:39;;;;;;;1.85;1.00;;;27.80;29.20;;;;;;5038453;28;20060;-69
2023/03/13 12:35:22;;;;;;;1.90;1.70;;;27.00;28.60;;;;;;5043331;28;20404;-64
2023/03/13 12:37:51;;;;;;;2.28;1.10;;;26.60;29.50;;;;;;5034457;28;20029;-59
2023/03/13 12:40:20;;;;;;;1.90;1.00;;;26.30;30.50;;;;;;5044033;28;20160;-64
2023/03/13 12:42:54;;;;;;;0.95;0.85;;;26.60;31.90;;;;;;5044204;28;20068;-64
2023/03/13 12:45:28;;;;;;;0.88;0.82;;;27.10;32.20;;;;;;5033893;28;20356;-61
2023/03/13 12:48:12;;;;;;;1.65;1.00;;;27.40;32.80;;;;;;5038456;28;20064;-67
2023/03/13 12:51:04;;;;;;;0.80;0.80;;;27.50;32.30;;;;;;5032381;28;20113;-64
2023/03/13 12:53:41;;;;;;;0.90;0.90;;;27.60;30.00;;;;;;5031515;28;20037;-69
2023/03/13 12:56:18;;;;;;;0.70;0.70;;;27.70;30.20;;;;;;5046514;28;20104;-64
2023/03/13 12:58:50;;;;;;;0.60;0.60;;;27.90;31.80;;;;;;5044903;28;20101;-64
2023/03/13 13:01:27;;;;;;;0.68;0.68;;;28.10;29.10;;;;;;5047319;28;20029;-66
2023/03/13 13:04:06;;;;;;;0.70;0.70;;;28.50;28.40;;;;;;5049200;28;20021;-64